Time;durP1;ratioP1;P1;durP2;ratioP2;P2;SDS_P1;SDS_P2;PMS_P1;PMS_P2;Temp;Humidity;BMP_temperature;BMP_pressure;BME280_temperature;BME280_humidity;BME280_pressure;Samples;Min_cycle;Max_cycle;Signal;HPM_P1;HPM_P2
2021/10/09 00:02:03;;;;;;;20.55;11.07;;;;;;;2.99;nan;103508.28;4915081;29;20062;-55
2021/10/09 00:04:28;;;;;;;26.67;11.10;;;;;;;2.95;nan;103504.22;4913726;29;20179;-55
2021/10/09 00:06:54;;;;;;;25.83;11.20;;;;;;;2.91;nan;103505.44;4915088;29;20071;-55
2021/10/09 00:09:19;;;;;;;21.75;10.60;;;;;;;2.78;nan;103488.91;4913011;29;20123;-55
2021/10/09 00:11:45;;;;;;;23.52;11.00;;;;;;;2.77;nan;103498.66;4897548;29;20091;-55
2021/10/09 00:14:13;;;;;;;23.13;10.68;;;;;;;2.77;nan;103495.19;4913787;29;20408;-54
2021/10/09 00:16:42;;;;;;;19.08;10.15;;;;;;;2.73;nan;103499.91;4915422;29;20035;-55
2021/10/09 00:19:08;;;;;;;25.60;10.48;;;;;;;2.61;nan;103501.75;4913069;29;20106;-56
2021/10/09 00:21:34;;;;;;;24.77;11.48;;;;;;;2.61;nan;103496.47;4916144;29;20027;-54
2021/10/09 00:24:00;;;;;;;19.35;10.05;;;;;;;2.56;nan;103496.00;4913764;29;20035;-53
2021/10/09 00:26:27;;;;;;;19.17;9.80;;;;;;;2.54;nan;103497.94;4917589;29;20035;-55
2021/10/09 00:28:52;;;;;;;26.63;10.70;;;;;;;2.56;nan;103500.47;4916364;29;20074;-55
2021/10/09 00:31:17;;;;;;;22.63;11.07;;;;;;;2.49;nan;103501.94;4906697;29;20027;-55
2021/10/09 00:33:43;;;;;;;22.60;10.98;;;;;;;2.43;nan;103498.84;4915837;29;20566;-53
2021/10/09 00:36:09;;;;;;;23.77;11.77;;;;;;;2.40;nan;103498.25;4913870;29;20798;-54
2021/10/09 00:38:34;;;;;;;26.52;11.70;;;;;;;2.42;nan;103496.31;4915004;29;20219;-54
2021/10/09 00:41:00;;;;;;;25.77;11.63;;;;;;;2.45;nan;103500.50;4914370;29;20032;-55
2021/10/09 00:43:25;;;;;;;21.48;12.70;;;;;;;2.54;nan;103495.31;4913710;29;20031;-55
2021/10/09 00:45:53;;;;;;;25.95;12.88;;;;;;;2.59;nan;103505.50;4914229;29;20036;-55
2021/10/09 00:48:18;;;;;;;29.48;13.10;;;;;;;2.61;nan;103499.09;4912826;29;20027;-53
2021/10/09 00:50:44;;;;;;;26.30;13.88;;;;;;;2.66;nan;103501.38;4913979;29;20077;-54
2021/10/09 00:53:11;;;;;;;30.58;12.93;;;;;;;2.66;nan;103506.66;4913539;29;20055;-55
2021/10/09 00:55:38;;;;;;;30.77;12.60;;;;;;;2.66;nan;103501.38;4914458;29;20040;-54
2021/10/09 00:58:05;;;;;;;31.00;12.90;;;;;;;2.64;nan;103503.31;4912142;29;20043;-53
2021/10/09 01:00:31;;;;;;;25.13;12.27;;;;;;;2.64;nan;103508.59;4912911;29;20055;-54
2021/10/09 01:02:57;;;;;;;23.80;12.25;;;;;;;2.61;nan;103499.09;4914408;29;20502;-55
2021/10/09 01:05:24;;;;;;;28.27;13.07;;;;;;;2.60;nan;103508.03;4915246;29;20518;-55
2021/10/09 01:07:49;;;;;;;28.05;12.50;;;;;;;2.57;nan;103510.09;4916163;29;20023;-55
2021/10/09 01:10:15;;;;;;;29.38;13.15;;;;;;;2.57;nan;103516.22;4910197;28;20545;-55
2021/10/09 01:12:40;;;;;;;28.00;12.10;;;;;;;2.52;nan;103507.00;4912210;29;20486;-55
2021/10/09 01:15:19;;;;;;;28.70;12.13;;;;;;;2.50;nan;103504.44;4912735;29;20032;-54
2021/10/09 01:17:45;;;;;;;26.13;12.82;;;;;;;2.54;nan;103500.59;4914576;29;20023;-56
2021/10/09 01:20:12;;;;;;;24.05;12.45;;;;;;;2.55;nan;103501.44;4911978;29;20882;-55
2021/10/09 01:22:38;;;;;;;26.83;11.27;;;;;;;2.37;nan;103511.75;4914441;29;20142;-52
2021/10/09 01:25:05;;;;;;;24.92;11.85;;;;;;;2.37;nan;103514.38;4912578;29;20083;-56
2021/10/09 01:27:31;;;;;;;23.38;11.38;;;;;;;2.41;nan;103508.72;4913255;29;20039;-52
2021/10/09 01:29:57;;;;;;;22.67;11.95;;;;;;;2.33;nan;103505.00;4913407;29;20036;-55
2021/10/09 01:32:29;;;;;;;26.30;12.20;;;;;;;2.33;90.46;103511.13;5060927;27;20417;-54
2021/10/09 01:34:55;;;;;;;30.42;12.35;;;;;;;2.21;89.73;103504.22;5056189;28;20040;-55
2021/10/09 01:37:20;;;;;;;24.70;11.82;;;;;;;2.11;89.58;103508.56;5060481;28;20089;-55
2021/10/09 01:39:48;;;;;;;22.02;11.00;;;;;;;2.06;89.57;103508.13;5060304;28;20587;-55
2021/10/09 01:42:14;;;;;;;20.85;10.75;;;;;;;2.10;89.51;103502.44;5058343;28;20399;-53
2021/10/09 01:44:41;;;;;;;23.90;12.25;;;;;;;2.09;90.00;103510.50;5060808;28;20040;-54
2021/10/09 01:47:06;;;;;;;24.25;12.68;;;;;;;2.13;91.06;103514.56;5059136;28;20834;-52
2021/10/09 01:49:32;;;;;;;30.48;12.55;;;;;;;2.12;91.17;103508.44;5060883;28;20032;-52
2021/10/09 01:51:58;;;;;;;27.98;12.30;;;;;;;2.05;90.94;103504.63;5059309;28;20028;-53
2021/10/09 01:54:23;;;;;;;27.55;12.07;;;;;;;2.03;90.80;103500.44;5059552;28;20036;-52
2021/10/09 01:56:49;;;;;;;25.17;11.63;;;;;;;2.06;90.28;103508.13;5059743;28;20056;-55
2021/10/09 01:59:15;;;;;;;23.55;12.10;;;;;;;1.92;90.88;103498.63;5058823;28;20101;-52
2021/10/09 02:01:41;;;;;;;20.17;10.82;;;;;;;1.90;89.79;103505.88;5060632;28;21136;-53
2021/10/09 02:04:07;;;;;;;21.00;10.38;;;;;;;1.79;88.72;103497.94;5059375;28;20615;-52
2021/10/09 02:06:33;;;;;;;24.15;11.05;;;;;;;1.71;88.46;103495.09;5060746;28;20039;-53
2021/10/09 02:08:58;;;;;;;25.55;11.93;;;;;;;1.66;89.35;103492.81;5061025;28;20025;-54
2021/10/09 02:11:34;;;;;;;20.77;11.63;;;;;;;1.63;89.48;103494.88;5060630;28;20104;-55
2021/10/09 02:14:11;;;;;;;24.30;12.05;;;;;;;1.57;89.91;103495.34;5058868;28;20356;-54
2021/10/09 02:27:27;;;;;;;23.77;11.30;;;;;;;1.41;89.92;103490.41;5059282;28;20039;-55
2021/10/09 02:29:52;;;;;;;20.23;11.18;;;;;;;1.40;89.87;103497.50;5059082;28;20091;-55
2021/10/09 02:32:18;;;;;;;24.38;12.25;;;;;;;1.33;89.91;103498.97;5059541;28;20056;-53
2021/10/09 02:34:43;;;;;;;23.33;11.80;;;;;;;1.35;90.26;103496.19;5060313;28;20035;-52
2021/10/09 02:37:09;;;;;;;23.15;11.35;;;;;;;1.29;90.02;103491.41;5058002;28;20147;-55
2021/10/09 02:39:34;;;;;;;23.40;12.45;;;;;;;1.23;90.96;103497.97;5060912;28;20050;-53
2021/10/09 02:42:00;;;;;;;25.83;12.80;;;;;;;1.27;90.21;103496.81;5054643;28;20501;-53
2021/10/09 02:44:25;;;;;;;23.52;11.60;;;;;;;1.29;90.01;103489.59;5044377;28;20719;-53
2021/10/09 02:46:51;;;;;;;24.15;11.80;;;;;;;1.28;89.98;103487.09;5046062;28;20533;-55
2021/10/09 02:49:16;;;;;;;22.48;12.02;;;;;;;1.27;90.06;103490.69;5046794;28;20054;-54
2021/10/09 02:51:41;;;;;;;26.70;13.32;;;;;;;1.24;90.41;103491.72;5046052;28;20111;-54
2021/10/09 02:54:07;;;;;;;25.40;11.70;;;;;;;1.25;90.17;103496.06;5044973;28;20029;-55
2021/10/09 02:56:32;;;;;;;21.95;12.23;;;;;;;1.24;89.93;103499.66;5044643;28;20383;-54
2021/10/09 02:58:58;;;;;;;26.85;12.18;;;;;;;1.19;90.69;103499.19;5044779;28;20029;-55
2021/10/09 03:01:23;;;;;;;24.63;12.18;;;;;;;1.23;90.32;103497.97;5047096;28;20029;-54
2021/10/09 03:03:49;;;;;;;21.67;11.52;;;;;;;1.18;90.43;103497.50;5045213;28;20143;-52
2021/10/09 03:06:14;;;;;;;27.65;11.60;;;;;;;1.16;89.86;103496.78;5046537;28;20707;-55
2021/10/09 03:08:39;;;;;;;24.27;11.60;;;;;;;1.15;89.67;103500.38;5045153;28;20063;-54
2021/10/09 03:11:05;;;;;;;24.90;12.02;;;;;;;1.07;90.53;103510.69;5045578;28;20274;-55
2021/10/09 03:13:30;;;;;;;23.15;12.38;;;;;;;1.13;90.04;103515.50;5046761;28;20251;-55
2021/10/09 03:15:56;;;;;;;28.40;12.93;;;;;;;1.08;90.38;103515.03;5045237;28;20551;-54
2021/10/09 03:18:21;;;;;;;29.45;14.10;;;;;;;1.09;90.82;103516.72;5043741;28;20556;-53
2021/10/09 03:20:47;;;;;;;26.45;13.50;;;;;;;1.06;91.24;103517.75;5045488;28;20418;-55
2021/10/09 03:23:13;;;;;;;23.90;11.93;;;;;;;1.12;91.03;103527.03;5043211;28;20029;-54
2021/10/09 03:25:39;;;;;;;23.27;12.88;;;;;;;1.10;91.10;103527.16;5044773;28;20354;-55
2021/10/09 03:28:04;;;;;;;28.00;12.43;;;;;;;1.09;90.61;103535.19;5045487;28;20030;-55
2021/10/09 03:30:30;;;;;;;27.67;12.35;;;;;;;1.09;89.92;103532.56;5044316;28;20505;-55
2021/10/09 03:32:55;;;;;;;23.05;11.90;;;;;;;0.99;90.45;103528.94;5042615;28;20025;-55
2021/10/09 03:35:21;;;;;;;26.25;13.25;;;;;;;0.96;90.46;103532.66;5046896;28;20404;-55
2021/10/09 03:37:46;;;;;;;23.67;12.45;;;;;;;0.95;90.24;103535.41;5045902;28;20033;-55
2021/10/09 03:40:15;;;;;;;22.05;10.93;;;;;;;0.88;90.40;103538.50;5045767;28;20371;-55
2021/10/09 03:42:46;;;;;;;26.60;11.40;;;;;;;0.81;90.71;103531.16;5045288;28;20040;-55
2021/10/09 03:45:27;;;;;;;23.13;11.10;;;;;;;0.79;91.86;103531.28;5043570;28;20553;-54
2021/10/09 03:48:11;;;;;;;23.73;11.40;;;;;;;0.81;92.38;103526.72;5043843;28;20041;-55
2021/10/09 03:53:03;;;;;;;24.40;12.75;;;;;;;0.68;91.24;103533.03;5045095;28;20047;-55
2021/10/09 03:55:30;;;;;;;27.65;12.27;;;;;;;0.62;90.99;103523.78;5043390;28;20025;-55
2021/10/09 03:57:55;;;;;;;26.23;11.85;;;;;;;0.63;90.85;103535.19;5045682;28;20043;-55
2021/10/09 04:00:21;;;;;;;27.15;11.93;;;;;;;0.61;91.08;103535.31;5044223;28;21819;-55
2021/10/09 04:02:47;;;;;;;24.83;12.00;;;;;;;0.61;91.01;103532.66;5043423;28;20036;-55
2021/10/09 04:05:13;;;;;;;25.52;12.60;;;;;;;0.58;91.50;103527.63;5044014;28;20683;-55
2021/10/09 04:07:39;;;;;;;22.98;11.18;;;;;;;0.56;91.66;103529.53;5043955;28;20040;-55
2021/10/09 04:10:06;;;;;;;24.88;11.73;;;;;;;0.44;92.06;103533.91;5045911;28;20035;-54
2021/10/09 04:12:31;;;;;;;29.80;13.98;;;;;;;0.47;91.75;103535.47;5043456;28;20370;-54
2021/10/09 04:14:57;;;;;;;23.67;11.88;;;;;;;0.46;91.22;103532.00;5043872;28;20785;-55
2021/10/09 04:17:22;;;;;;;33.08;13.02;;;;;;;0.40;92.41;103531.63;5045616;28;21582;-54
2021/10/09 04:19:48;;;;;;;31.23;13.63;;;;;;;0.34;92.05;103527.63;5043377;28;20223;-54
2021/10/09 04:22:13;;;;;;;29.92;13.88;;;;;;;0.40;91.23;103531.63;5044354;28;20517;-54
2021/10/09 04:24:39;;;;;;;31.15;13.73;;;;;;;0.39;91.22;103540.50;5043133;28;20039;-55
2021/10/09 04:27:05;;;;;;;26.67;13.68;;;;;;;0.38;91.32;103537.00;5046575;28;20179;-55
2021/10/09 04:29:30;;;;;;;29.42;13.18;;;;;;;0.37;91.59;103543.25;5044509;28;20031;-55
2021/10/09 04:31:56;;;;;;;24.38;12.98;;;;;;;0.38;91.30;103538.81;5043856;28;20243;-55
2021/10/09 04:34:22;;;;;;;22.63;11.18;;;;;;;0.34;91.37;103540.81;5042362;28;20477;-54
2021/10/09 04:36:47;;;;;;;25.83;11.95;;;;;;;0.30;91.52;103542.00;5042428;28;20627;-56
2021/10/09 04:39:13;;;;;;;24.27;12.40;;;;;;;0.26;91.42;103546.66;5043476;28;20106;-52
2021/10/09 04:41:39;;;;;;;25.40;11.85;;;;;;;0.23;91.60;103541.63;5043927;28;20459;-55
2021/10/09 04:44:05;;;;;;;30.95;12.20;;;;;;;0.23;91.87;103546.03;5043489;28;20035;-55
2021/10/09 04:46:31;;;;;;;23.67;12.52;;;;;;;0.18;91.64;103546.38;5043839;28;20443;-54
2021/10/09 04:48:57;;;;;;;27.35;12.35;;;;;;;0.13;91.86;103548.50;5046917;28;20118;-55
2021/10/09 04:51:24;;;;;;;25.50;12.18;;;;;;;0.09;91.88;103546.19;5042417;28;20032;-55
2021/10/09 04:53:49;;;;;;;29.20;12.98;;;;;;;0.13;91.69;103545.84;5044713;28;20025;-55
2021/10/09 04:56:15;;;;;;;28.95;14.27;;;;;;;0.11;92.06;103547.75;5044084;28;20059;-55
2021/10/09 04:58:40;;;;;;;24.05;11.95;;;;;;;0.08;92.23;103550.63;5043076;28;20032;-54
2021/10/09 05:01:06;;;;;;;31.08;13.43;;;;;;;0.03;92.35;103550.13;5042795;28;20248;-55
2021/10/09 05:03:31;;;;;;;27.20;12.95;;;;;;;0.03;91.65;103549.28;5043258;28;20498;-53
2021/10/09 05:05:57;;;;;;;27.15;14.07;;;;;;;0.02;91.73;103548.44;5043335;28;20607;-55
2021/10/09 05:08:22;;;;;;;27.05;12.85;;;;;;;0.02;91.88;103555.50;5044582;28;20562;-53
2021/10/09 05:10:48;;;;;;;29.02;12.85;;;;;;;0.00;91.97;103558.25;5040679;28;20576;-55
2021/10/09 05:13:13;;;;;;;25.27;12.25;;;;;;;-0.03;91.32;103571.63;5041704;28;20032;-52
2021/10/09 05:15:44;;;;;;;29.40;13.85;;;;;;;-0.06;91.68;103567.44;5042568;28;20028;-53
2021/10/09 05:18:10;;;;;;;25.40;12.48;;;;;;;-0.05;91.53;103573.53;5043516;28;20151;-54
2021/10/09 05:20:37;;;;;;;28.38;12.98;;;;;;;-0.11;91.69;103576.63;5042669;28;20090;-51
2021/10/09 05:23:03;;;;;;;25.40;12.98;;;;;;;-0.10;91.39;103586.22;5044678;28;21226;-54
2021/10/09 05:25:31;;;;;;;25.88;13.80;;;;;;;-0.07;91.60;103586.00;5043622;28;20032;-54
2021/10/09 05:28:02;;;;;;;28.77;13.30;;;;;;;-0.07;91.40;103586.81;5042791;28;20690;-56
2021/10/09 05:30:29;;;;;;;32.42;13.07;;;;;;;-0.04;91.87;103588.41;5047701;28;20029;-55
2021/10/09 05:33:15;;;;;;;27.30;13.57;;;;;;;0.02;91.41;103595.88;5041541;28;21469;-52
2021/10/09 05:35:41;;;;;;;26.15;11.50;;;;;;;0.02;91.76;103597.69;5041891;28;20486;-54
2021/10/09 05:38:07;;;;;;;26.02;13.30;;;;;;;0.09;91.72;103591.84;5044843;28;20127;-55
2021/10/09 05:40:32;;;;;;;25.98;14.00;;;;;;;0.11;91.95;103589.94;5043366;28;20028;-55
2021/10/09 05:42:58;;;;;;;25.15;12.88;;;;;;;0.23;91.49;103594.34;5041597;28;20367;-55
2021/10/09 05:45:24;;;;;;;25.92;12.27;;;;;;;0.36;91.05;103594.31;5042025;28;20375;-55
2021/10/09 05:47:51;;;;;;;25.33;11.85;;;;;;;0.46;90.65;103599.75;5043195;28;20051;-55
2021/10/09 05:50:17;;;;;;;27.25;13.63;;;;;;;0.56;90.33;103606.88;5042306;28;20024;-55
2021/10/09 05:52:51;;;;;;;28.88;12.02;;;;;;;0.66;89.94;103603.56;5042937;28;20124;-53
2021/10/09 05:55:29;;;;;;;25.45;12.90;;;;;;;0.76;89.82;103608.06;5043495;28;20568;-55
2021/10/09 06:25:39;;;;;;;24.52;13.93;;;;;;;2.35;89.91;103620.34;5044674;28;20043;-55
2021/10/09 07:00:38;;;;;;;22.88;12.38;;;;;;;4.75;82.86;103632.38;5043260;28;20051;-55
2021/10/09 07:03:04;;;;;;;23.73;12.95;;;;;;;4.89;82.11;103627.63;5044854;28;20451;-55
2021/10/09 07:05:30;;;;;;;21.08;11.27;;;;;;;5.03;82.62;103635.19;5044925;28;20029;-56
2021/10/09 07:08:02;;;;;;;27.40;12.10;;;;;;;5.23;81.19;103636.00;5046034;28;20039;-55
2021/10/09 07:10:27;;;;;;;22.50;11.57;;;;;;;5.37;80.40;103644.34;5044679;28;20518;-55
2021/10/09 07:12:53;;;;;;;25.40;11.95;;;;;;;5.58;80.27;103646.00;5045018;28;20040;-56
2021/10/09 07:15:18;;;;;;;23.65;11.93;;;;;;;5.76;79.61;103644.28;5046149;28;20032;-55
2021/10/09 07:17:45;;;;;;;22.50;12.10;;;;;;;5.96;78.88;103640.59;5044465;28;20391;-56
2021/10/09 07:20:11;;;;;;;23.42;12.15;;;;;;;6.05;78.79;103644.16;5044398;28;20570;-55
2021/10/09 07:22:37;;;;;;;27.60;13.48;;;;;;;6.24;78.24;103644.06;5043420;28;20199;-56
2021/10/09 07:25:04;;;;;;;31.38;13.45;;;;;;;6.41;78.32;103639.78;5044556;28;20028;-56
2021/10/09 07:27:29;;;;;;;23.15;11.98;;;;;;;6.63;77.79;103643.81;5043659;28;20542;-56
2021/10/09 07:29:55;;;;;;;22.70;12.20;;;;;;;6.87;77.57;103645.91;5031960;28;20032;-56
2021/10/09 07:32:20;;;;;;;22.80;11.90;;;;;;;7.12;77.00;103649.59;5042279;28;20028;-56
2021/10/09 07:34:46;;;;;;;21.85;12.07;;;;;;;7.33;75.90;103650.09;5042329;28;20028;-56
2021/10/09 07:37:11;;;;;;;21.65;12.20;;;;;;;7.51;76.02;103644.72;5043551;28;20036;-56
2021/10/09 07:39:37;;;;;;;22.52;12.25;;;;;;;7.66;75.08;103653.00;5042473;28;20380;-56
2021/10/09 07:42:03;;;;;;;22.17;11.90;;;;;;;7.75;75.00;103649.38;5042941;28;20169;-56
2021/10/09 07:46:58;;;;;;;25.65;11.88;;;;;;;8.03;74.63;103650.00;5042883;28;20523;-49
2021/10/09 07:49:23;;;;;;;22.77;11.32;;;;;;;8.24;73.69;103649.59;5045876;28;20036;-47
2021/10/09 07:51:49;;;;;;;22.25;12.38;;;;;;;8.39;72.98;103650.69;5044041;28;20028;-47
2021/10/09 07:54:15;;;;;;;23.67;12.93;;;;;;;8.51;72.86;103656.56;5045232;28;20036;-47
2021/10/09 07:56:41;;;;;;;21.40;10.63;;;;;;;8.66;72.51;103655.75;5043982;28;20074;-46
2021/10/09 07:59:06;;;;;;;23.17;11.90;;;;;;;8.84;72.04;103660.13;5045475;28;20074;-49
2021/10/09 08:01:32;;;;;;;22.15;10.68;;;;;;;8.98;71.58;103662.16;5046206;28;20036;-47
2021/10/09 08:03:59;;;;;;;21.77;11.15;;;;;;;9.07;70.38;103666.50;5045583;28;20032;-47
2021/10/09 08:06:25;;;;;;;24.85;13.10;;;;;;;9.25;70.02;103669.84;5046156;28;21523;-47
2021/10/09 08:08:51;;;;;;;21.05;11.32;;;;;;;9.41;69.38;103668.16;5045968;28;20094;-48
2021/10/09 08:11:16;;;;;;;21.33;11.18;;;;;;;9.55;68.84;103664.78;5046091;28;20107;-47
2021/10/09 08:13:43;;;;;;;22.15;11.30;;;;;;;9.73;68.39;103661.91;5045220;28;20379;-47
2021/10/09 08:16:09;;;;;;;25.52;11.15;;;;;;;9.81;68.08;103659.19;5046695;28;20043;-47
2021/10/09 08:18:34;;;;;;;18.05;10.48;;;;;;;9.97;67.48;103670.69;5044544;28;20041;-47
2021/10/09 08:21:05;;;;;;;18.00;10.57;;;;;;;10.05;66.87;103668.97;5047394;28;20121;-47
2021/10/09 08:37:18;;;;;;;17.52;9.45;;;;;;;11.04;63.79;103658.38;5046415;28;20324;-48
2021/10/09 08:39:46;;;;;;;18.55;9.93;;;;;;;11.14;63.10;103658.97;5045132;28;20035;-46
2021/10/09 08:42:13;;;;;;;19.95;8.73;;;;;;;11.30;62.96;103657.97;5048332;28;20087;-48
2021/10/09 08:44:39;;;;;;;22.95;8.77;;;;;;;11.37;61.75;103658.09;5046605;28;20037;-48
2021/10/09 08:47:08;;;;;;;17.42;9.65;;;;;;;11.50;61.73;103655.63;5046641;28;20537;-49
2021/10/09 08:49:35;;;;;;;15.65;8.85;;;;;;;11.65;61.26;103659.13;5048989;28;20103;-50
2021/10/09 08:52:02;;;;;;;19.75;8.20;;;;;;;11.78;60.62;103655.81;5048549;28;20028;-47
2021/10/09 08:54:40;;;;;;;15.00;9.07;;;;;;;11.89;59.42;103651.88;5048427;28;20428;-47
2021/10/09 08:57:15;;;;;;;17.83;8.82;;;;;;;12.06;60.03;103658.72;5047613;28;20437;-46
2021/10/09 09:00:09;;;;;;;14.30;8.48;;;;;;;12.14;57.55;103658.59;5045435;28;20036;-49
2021/10/09 09:02:39;;;;;;;13.60;7.68;;;;;;;12.22;58.32;103653.13;5045147;28;20490;-47
2021/10/09 09:07:51;;;;;;;14.38;8.00;;;;;;;12.43;57.54;103655.03;5061983;28;20025;-46
2021/10/09 09:40:06;;;;;;;18.92;6.45;;;;;;;14.04;51.45;103640.81;5045562;28;20036;-48
2021/10/09 09:42:32;;;;;;;11.45;6.53;;;;;;;14.12;50.20;103627.97;5044997;28;20025;-48
2021/10/09 09:45:00;;;;;;;9.70;6.15;;;;;;;14.15;49.35;103630.25;5046875;28;20470;-49
2021/10/09 09:47:42;;;;;;;10.73;6.35;;;;;;;14.12;46.42;103630.66;5046386;28;20209;-49
2021/10/09 09:50:11;;;;;;;9.82;5.53;;;;;;;14.30;48.28;103631.97;5042722;28;20028;-50
2021/10/09 09:52:42;;;;;;;12.73;6.13;;;;;;;14.36;47.86;103620.34;5046191;28;20024;-47
2021/10/09 09:55:10;;;;;;;9.55;5.35;;;;;;;14.40;46.77;103617.06;5050347;28;20064;-51
2021/10/09 09:57:36;;;;;;;9.45;5.43;;;;;;;14.59;46.97;103623.56;5051315;28;20025;-47
2021/10/09 10:00:22;;;;;;;9.43;5.28;;;;;;;14.64;44.99;103625.66;5049012;28;20043;-47
2021/10/09 10:02:51;;;;;;;10.00;4.20;;;;;;;14.54;43.26;103628.72;5047044;28;21232;-47
2021/10/09 10:05:18;;;;;;;7.82;4.20;;;;;;;14.47;43.59;103627.91;5045959;28;20040;-48
2021/10/09 10:07:46;;;;;;;10.45;4.72;;;;;;;14.48;42.63;103626.84;5050196;28;20524;-47
2021/10/09 10:10:11;;;;;;;9.65;5.25;;;;;;;14.55;43.01;103619.63;5049797;28;20505;-47
2021/10/09 10:12:38;;;;;;;11.85;5.15;;;;;;;14.68;43.16;103624.19;5050462;28;20021;-47
2021/10/09 10:15:06;;;;;;;10.18;4.88;;;;;;;14.54;41.76;103620.63;5051523;28;20040;-47
2021/10/09 10:17:46;;;;;;;11.45;5.28;;;;;;;14.57;42.11;103617.56;5053400;28;20029;-48
2021/10/09 10:20:12;;;;;;;6.32;4.25;;;;;;;14.62;42.68;103609.66;5049914;28;20040;-49
2021/10/09 10:22:41;;;;;;;14.57;9.00;;;;;;;14.69;42.54;103615.88;5048311;28;20502;-48
2021/10/09 10:25:21;;;;;;;18.40;10.20;;;;;;;14.86;41.82;103605.53;5048866;28;20582;-47
2021/10/09 10:28:06;;;;;;;15.23;6.72;;;;;;;15.00;42.02;103600.97;5049597;28;20029;-48
2021/10/09 10:31:04;;;;;;;29.73;13.93;;;;;;;15.06;40.74;103610.91;5052568;28;20036;-49
2021/10/09 10:33:36;;;;;;;20.95;9.13;;;;;;;15.10;40.30;103606.78;5047959;28;21033;-47
2021/10/09 10:36:02;;;;;;;25.73;14.32;;;;;;;15.01;39.55;103591.81;5051586;28;20033;-49
2021/10/09 10:38:41;;;;;;;16.80;8.85;;;;;;;15.20;40.83;103600.94;5053068;28;20689;-48
2021/10/09 10:41:07;;;;;;;10.10;5.47;;;;;;;15.31;41.00;103595.75;5048461;28;20540;-47
2021/10/09 10:46:30;;;;;;;10.98;5.15;;;;;;;15.37;40.03;103597.59;5046291;28;20178;-47
2021/10/09 10:49:02;;;;;;;8.45;4.72;;;;;;;15.37;40.25;103586.78;5049165;28;20020;-47
2021/10/09 10:56:59;;;;;;;8.38;5.28;;;;;;;15.64;39.47;103584.88;5044943;28;20071;-47
2021/10/09 10:59:33;;;;;;;8.60;5.20;;;;;;;15.78;39.62;103574.00;5047966;28;20028;-49
2021/10/09 11:02:14;;;;;;;7.75;4.80;;;;;;;15.84;38.81;103582.09;5049273;28;20039;-47
2021/10/09 11:04:50;;;;;;;9.43;4.60;;;;;;;15.98;38.89;103578.31;5052210;28;20497;-47
2021/10/09 11:07:18;;;;;;;10.23;4.80;;;;;;;16.06;38.82;103582.63;5057212;28;20024;-48
2021/10/09 11:09:44;;;;;;;8.55;4.60;;;;;;;16.11;39.10;103576.56;5056871;28;20040;-49
2021/10/09 11:12:24;;;;;;;8.77;4.60;;;;;;;16.19;38.29;103576.31;5059312;28;20020;-47
2021/10/09 11:14:52;;;;;;;6.72;4.00;;;;;;;16.22;38.30;103581.28;5057415;28;20032;-46
2021/10/09 11:17:18;;;;;;;5.70;3.97;;;;;;;16.48;38.36;103583.00;5062698;28;20486;-47
2021/10/09 11:19:50;;;;;;;6.80;4.10;;;;;;;16.76;36.43;103579.91;5057550;28;20066;-48
2021/10/09 11:22:19;;;;;;;7.80;4.20;;;;;;;17.72;35.08;103579.38;5062446;28;20100;-47
2021/10/09 11:24:50;;;;;;;6.90;4.68;;;;;;;19.85;31.24;103578.38;5054218;28;20029;-48
2021/10/09 11:27:17;;;;;;;7.10;4.35;;;;;;;21.53;28.81;103575.69;5059533;28;20036;-48
2021/10/09 11:30:03;;;;;;;7.70;4.03;;;;;;;22.87;27.02;103577.63;5055474;28;20035;-47
2021/10/09 11:32:31;;;;;;;8.25;4.03;;;;;;;24.20;25.15;103568.06;5057334;28;20480;-49
2021/10/09 11:34:57;;;;;;;26.02;5.63;;;;;;;25.51;24.13;103571.78;5059870;28;20585;-48
2021/10/09 11:37:22;;;;;;;7.68;4.60;;;;;;;26.29;22.71;103571.03;5059501;28;20132;-49
2021/10/09 11:39:51;;;;;;;12.52;5.10;;;;;;;26.45;22.10;103569.84;5052356;28;20037;-51
2021/10/09 11:42:21;;;;;;;8.88;4.43;;;;;;;27.02;21.17;103568.22;5057260;28;20438;-46
2021/10/09 11:56:05;;;;;;;8.93;4.28;;;;;;;29.71;18.17;103552.72;5054795;28;20170;-49
2021/10/09 11:58:31;;;;;;;7.28;4.28;;;;;;;30.44;18.09;103559.00;5054628;28;20536;-51
2021/10/09 12:00:57;;;;;;;7.43;4.15;;;;;;;30.25;17.13;103553.69;5054608;28;20024;-49
2021/10/09 12:03:35;;;;;;;7.05;4.70;;;;;;;30.32;16.76;103548.50;5053927;28;20028;-49
2021/10/09 12:06:11;;;;;;;8.25;4.38;;;;;;;30.39;17.61;103556.38;5056898;28;20025;-49
2021/10/09 12:08:54;;;;;;;7.80;4.80;;;;;;;30.26;16.68;103548.97;5053567;28;20343;-49
2021/10/09 12:11:19;;;;;;;6.40;4.25;;;;;;;31.00;16.63;103540.06;5068748;28;20031;-48
2021/10/09 12:13:57;;;;;;;6.75;4.50;;;;;;;31.48;16.29;103542.84;5057868;28;20032;-50
2021/10/09 12:16:48;;;;;;;5.45;3.85;;;;;;;32.03;15.04;103537.47;5053085;28;20063;-49
2021/10/09 12:19:25;;;;;;;6.18;4.57;;;;;;;30.93;16.12;103533.06;5054582;28;20474;-46
2021/10/09 12:21:51;;;;;;;9.10;4.38;;;;;;;31.46;16.51;103525.72;5059313;28;20381;-48
2021/10/09 12:24:22;;;;;;;7.80;4.72;;;;;;;32.51;15.51;103528.09;5052174;28;20116;-49
2021/10/09 12:27:00;;;;;;;10.20;4.40;;;;;;;32.90;14.60;103523.38;5055154;28;20231;-51
2021/10/09 12:29:26;;;;;;;6.85;4.10;;;;;;;30.43;16.35;103524.16;5054107;28;20702;-50
2021/10/09 12:31:52;;;;;;;6.20;3.78;;;;;;;32.72;15.50;103523.44;5051221;28;20028;-51
2021/10/09 12:34:35;;;;;;;5.13;4.18;;;;;;;33.02;14.72;103515.13;5054793;28;20542;-48
2021/10/09 12:37:27;;;;;;;5.70;3.90;;;;;;;32.89;15.09;103516.22;5060103;28;20032;-51
2021/10/09 12:40:06;;;;;;;6.35;4.22;;;;;;;32.32;14.87;103511.03;5057470;28;20831;-51
2021/10/09 12:42:32;;;;;;;5.90;4.15;;;;;;;33.98;14.41;103509.69;5055466;28;20064;-52
2021/10/09 12:44:58;;;;;;;20.45;13.48;;;;;;;35.01;13.35;103502.91;5057990;28;20127;-52
2021/10/09 12:47:23;;;;;;;5.20;4.50;;;;;;;31.86;15.29;103496.72;5057612;28;20024;-50
2021/10/09 12:49:49;;;;;;;7.30;4.00;;;;;;;31.29;15.36;103504.34;5058359;28;20036;-51
2021/10/09 12:52:16;;;;;;;6.93;3.90;;;;;;;32.85;14.33;103495.78;5054605;28;20074;-49
2021/10/09 12:54:42;;;;;;;7.45;3.70;;;;;;;33.92;13.76;103498.78;5054852;28;20024;-50
2021/10/09 12:57:08;;;;;;;13.38;5.97;;;;;;;35.07;12.89;103479.19;5055673;28;20697;-50
2021/10/09 12:59:35;;;;;;;12.95;4.78;;;;;;;34.90;13.28;103482.25;5056525;28;20028;-50
2021/10/09 13:02:01;;;;;;;6.20;4.25;;;;;;;35.03;13.22;103483.06;5055671;28;20387;-51
2021/10/09 13:04:27;;;;;;;7.20;3.50;;;;;;;35.72;11.93;103479.09;5058779;28;20593;-52
2021/10/09 13:06:52;;;;;;;6.45;3.55;;;;;;;35.38;12.32;103474.97;5054247;28;20036;-51
2021/10/09 13:09:18;;;;;;;5.40;3.35;;;;;;;35.28;11.97;103469.84;5057946;28;20024;-54
2021/10/09 13:12:03;;;;;;;7.43;3.42;;;;;;;32.47;13.65;103471.59;5059196;28;20025;-48
2021/10/09 13:14:29;;;;;;;8.88;3.40;;;;;;;33.48;13.47;103469.72;5056957;28;20043;-51
2021/10/09 13:16:54;;;;;;;4.68;3.20;;;;;;;33.92;13.09;103470.16;5061256;28;20028;-48
2021/10/09 13:19:20;;;;;;;6.22;3.50;;;;;;;34.30;12.58;103469.91;5055764;28;20078;-50
2021/10/09 13:21:46;;;;;;;7.63;4.00;;;;;;;34.73;12.70;103471.31;5060147;28;20064;-49
2021/10/09 13:24:11;;;;;;;11.65;6.28;;;;;;;35.42;12.42;103459.16;5053832;28;20033;-48
2021/10/09 13:26:37;;;;;;;18.45;13.27;;;;;;;34.58;12.71;103460.88;5057433;28;20512;-52
2021/10/09 13:29:04;;;;;;;3.22;2.92;;;;;;;33.37;13.16;103456.56;5055978;28;20067;-49
2021/10/09 13:31:29;;;;;;;6.07;3.33;;;;;;;32.16;13.23;103453.28;5054871;28;20040;-54
2021/10/09 13:33:56;;;;;;;5.00;3.30;;;;;;;32.34;13.32;103453.25;5056857;28;20138;-48
2021/10/09 13:36:23;;;;;;;4.55;3.30;;;;;;;32.60;13.77;103451.16;5060030;28;20040;-51
2021/10/09 13:38:50;;;;;;;9.52;3.42;;;;;;;33.59;12.62;103451.50;5055569;28;20027;-51
2021/10/09 13:41:15;;;;;;;6.05;3.38;;;;;;;33.58;12.32;103451.84;5058025;28;20536;-53
2021/10/09 13:43:41;;;;;;;16.52;3.72;;;;;;;33.67;12.61;103452.56;5055332;28;20131;-48
2021/10/09 13:46:07;;;;;;;6.50;3.35;;;;;;;33.51;12.09;103443.22;5076977;22;20159;-76
2021/10/09 13:48:33;;;;;;;6.13;3.40;;;;;;;32.60;12.82;103430.91;5075643;28;20038;-76